sensor_id;sensor_type;location;lat;lon;timestamp;P1;durP1;ratioP1;P2;durP2;ratioP2
27003;SDS011;14546;47.590;19.022;2023-06-14T00:01:50;7.78;;;4.57;;
27003;SDS011;14546;47.590;19.022;2023-06-14T00:04:17;7.13;;;4.63;;
27003;SDS011;14546;47.590;19.022;2023-06-14T00:06:44;7.32;;;4.70;;
27003;SDS011;14546;47.590;19.022;2023-06-14T00:09:10;9.40;;;4.60;;
27003;SDS011;14546;47.590;19.022;2023-06-14T00:11:42;10.60;;;5.55;;
27003;SDS011;14546;47.590;19.022;2023-06-14T00:14:08;8.70;;;5.18;;
27003;SDS011;14546;47.590;19.022;2023-06-14T00:16:34;8.40;;;4.53;;
27003;SDS011;14546;47.590;19.022;2023-06-14T00:19:03;9.05;;;4.65;;
27003;SDS011;14546;47.590;19.022;2023-06-14T00:21:30;12.35;;;5.38;;
27003;SDS011;14546;47.590;19.022;2023-06-14T00:23:57;7.00;;;5.30;;
27003;SDS011;14546;47.590;19.022;2023-06-14T00:26:23;10.52;;;5.63;;
27003;SDS011;14546;47.590;19.022;2023-06-14T00:28:50;7.20;;;5.13;;
27003;SDS011;14546;47.590;19.022;2023-06-14T00:31:16;9.68;;;5.85;;
27003;SDS011;14546;47.590;19.022;2023-06-14T00:33:42;9.88;;;6.40;;
27003;SDS011;14546;47.590;19.022;2023-06-14T00:36:08;9.32;;;6.05;;
27003;SDS011;14546;47.590;19.022;2023-06-14T00:38:34;8.32;;;6.30;;
27003;SDS011;14546;47.590;19.022;2023-06-14T00:41:00;9.43;;;6.90;;
27003;SDS011;14546;47.590;19.022;2023-06-14T00:43:26;9.30;;;6.43;;
27003;SDS011;14546;47.590;19.022;2023-06-14T00:45:52;8.65;;;6.10;;
27003;SDS011;14546;47.590;19.022;2023-06-14T00:48:18;10.27;;;7.05;;
27003;SDS011;14546;47.590;19.022;2023-06-14T00:50:45;10.60;;;7.30;;
27003;SDS011;14546;47.590;19.022;2023-06-14T00:53:13;12.63;;;7.30;;
27003;SDS011;14546;47.590;19.022;2023-06-14T00:55:40;9.35;;;6.63;;
27003;SDS011;14546;47.590;19.022;2023-06-14T00:58:06;9.05;;;7.30;;
27003;SDS011;14546;47.590;19.022;2023-06-14T01:00:32;10.25;;;7.10;;
27003;SDS011;14546;47.590;19.022;2023-06-14T01:02:58;14.77;;;7.30;;
27003;SDS011;14546;47.590;19.022;2023-06-14T01:05:25;12.85;;;8.07;;
27003;SDS011;14546;47.590;19.022;2023-06-14T01:15:18;18.55;;;8.02;;
27003;SDS011;14546;47.590;19.022;2023-06-14T01:17:46;12.88;;;8.00;;
27003;SDS011;14546;47.590;19.022;2023-06-14T01:20:16;13.80;;;8.85;;
27003;SDS011;14546;47.590;19.022;2023-06-14T01:22:48;11.93;;;8.50;;
27003;SDS011;14546;47.590;19.022;2023-06-14T01:25:14;11.57;;;7.80;;
27003;SDS011;14546;47.590;19.022;2023-06-14T01:27:41;12.55;;;8.57;;
27003;SDS011;14546;47.590;19.022;2023-06-14T01:30:07;14.38;;;8.63;;
27003;SDS011;14546;47.590;19.022;2023-06-14T01:32:34;12.27;;;8.63;;
27003;SDS011;14546;47.590;19.022;2023-06-14T01:35:01;12.27;;;9.27;;
27003;SDS011;14546;47.590;19.022;2023-06-14T01:37:28;12.88;;;8.85;;
27003;SDS011;14546;47.590;19.022;2023-06-14T01:39:55;14.93;;;9.40;;
27003;SDS011;14546;47.590;19.022;2023-06-14T01:42:21;14.77;;;9.73;;
27003;SDS011;14546;47.590;19.022;2023-06-14T01:44:48;15.27;;;9.32;;
27003;SDS011;14546;47.590;19.022;2023-06-14T01:47:15;14.90;;;9.18;;
27003;SDS011;14546;47.590;19.022;2023-06-14T01:49:41;15.45;;;9.73;;
27003;SDS011;14546;47.590;19.022;2023-06-14T01:52:07;12.98;;;9.38;;
27003;SDS011;14546;47.590;19.022;2023-06-14T01:54:35;15.15;;;9.93;;
27003;SDS011;14546;47.590;19.022;2023-06-14T01:57:03;14.52;;;9.75;;
27003;SDS011;14546;47.590;19.022;2023-06-14T01:59:29;15.07;;;10.02;;
27003;SDS011;14546;47.590;19.022;2023-06-14T02:01:56;17.45;;;10.07;;
27003;SDS011;14546;47.590;19.022;2023-06-14T02:04:22;15.15;;;10.30;;
27003;SDS011;14546;47.590;19.022;2023-06-14T02:06:48;14.82;;;10.15;;
27003;SDS011;14546;47.590;19.022;2023-06-14T02:09:14;18.08;;;11.10;;
27003;SDS011;14546;47.590;19.022;2023-06-14T02:11:40;14.82;;;10.13;;
27003;SDS011;14546;47.590;19.022;2023-06-14T02:14:06;14.80;;;10.10;;
27003;SDS011;14546;47.590;19.022;2023-06-14T02:16:36;17.52;;;10.85;;
27003;SDS011;14546;47.590;19.022;2023-06-14T02:19:04;20.02;;;10.20;;
27003;SDS011;14546;47.590;19.022;2023-06-14T02:21:30;20.13;;;11.10;;
27003;SDS011;14546;47.590;19.022;2023-06-14T02:23:56;17.35;;;10.98;;
27003;SDS011;14546;47.590;19.022;2023-06-14T02:26:23;19.05;;;11.15;;
27003;SDS011;14546;47.590;19.022;2023-06-14T02:28:49;19.80;;;11.50;;
27003;SDS011;14546;47.590;19.022;2023-06-14T02:31:15;19.05;;;11.95;;
27003;SDS011;14546;47.590;19.022;2023-06-14T02:33:41;17.30;;;11.45;;
27003;SDS011;14546;47.590;19.022;2023-06-14T02:36:07;17.05;;;11.60;;
27003;SDS011;14546;47.590;19.022;2023-06-14T02:38:33;19.30;;;12.43;;
27003;SDS011;14546;47.590;19.022;2023-06-14T02:40:59;19.48;;;13.02;;
27003;SDS011;14546;47.590;19.022;2023-06-14T02:43:28;18.20;;;12.02;;
27003;SDS011;14546;47.590;19.022;2023-06-14T02:45:55;19.45;;;12.23;;
27003;SDS011;14546;47.590;19.022;2023-06-14T02:48:21;21.48;;;12.50;;
27003;SDS011;14546;47.590;19.022;2023-06-14T02:50:47;19.05;;;12.60;;
27003;SDS011;14546;47.590;19.022;2023-06-14T02:53:13;22.27;;;12.55;;
27003;SDS011;14546;47.590;19.022;2023-06-14T02:55:39;17.63;;;12.35;;
27003;SDS011;14546;47.590;19.022;2023-06-14T02:58:05;19.80;;;12.35;;
27003;SDS011;14546;47.590;19.022;2023-06-14T03:00:31;23.83;;;13.60;;
27003;SDS011;14546;47.590;19.022;2023-06-14T03:02:58;20.50;;;12.80;;
27003;SDS011;14546;47.590;19.022;2023-06-14T03:05:26;20.85;;;13.20;;
27003;SDS011;14546;47.590;19.022;2023-06-14T03:07:53;22.63;;;12.98;;
27003;SDS011;14546;47.590;19.022;2023-06-14T03:10:19;18.20;;;12.15;;
27003;SDS011;14546;47.590;19.022;2023-06-14T03:12:47;20.77;;;12.43;;
27003;SDS011;14546;47.590;19.022;2023-06-14T03:15:13;21.02;;;12.43;;
27003;SDS011;14546;47.590;19.022;2023-06-14T03:17:39;25.23;;;13.15;;
27003;SDS011;14546;47.590;19.022;2023-06-14T03:20:06;17.23;;;11.27;;
27003;SDS011;14546;47.590;19.022;2023-06-14T03:22:33;21.50;;;12.00;;
27003;SDS011;14546;47.590;19.022;2023-06-14T03:24:59;15.40;;;10.00;;
27003;SDS011;14546;47.590;19.022;2023-06-14T03:27:25;10.73;;;7.72;;
27003;SDS011;14546;47.590;19.022;2023-06-14T03:29:53;12.50;;;8.18;;
27003;SDS011;14546;47.590;19.022;2023-06-14T03:32:19;10.40;;;6.90;;
27003;SDS011;14546;47.590;19.022;2023-06-14T03:34:45;12.27;;;6.32;;
27003;SDS011;14546;47.590;19.022;2023-06-14T03:37:11;9.73;;;6.60;;
27003;SDS011;14546;47.590;19.022;2023-06-14T03:39:37;11.82;;;6.72;;
27003;SDS011;14546;47.590;19.022;2023-06-14T03:42:11;10.95;;;6.80;;
27003;SDS011;14546;47.590;19.022;2023-06-14T03:44:37;10.60;;;6.80;;
27003;SDS011;14546;47.590;19.022;2023-06-14T03:47:03;20.25;;;7.82;;
27003;SDS011;14546;47.590;19.022;2023-06-14T03:49:29;31.10;;;9.15;;
27003;SDS011;14546;47.590;19.022;2023-06-14T03:51:55;35.58;;;11.00;;
27003;SDS011;14546;47.590;19.022;2023-06-14T03:54:21;19.95;;;9.43;;
27003;SDS011;14546;47.590;19.022;2023-06-14T03:56:47;18.95;;;8.95;;
27003;SDS011;14546;47.590;19.022;2023-06-14T03:59:13;16.30;;;9.63;;
27003;SDS011;14546;47.590;19.022;2023-06-14T04:01:40;21.17;;;10.60;;
27003;SDS011;14546;47.590;19.022;2023-06-14T04:04:11;13.45;;;9.07;;
27003;SDS011;14546;47.590;19.022;2023-06-14T04:06:37;16.80;;;8.77;;
27003;SDS011;14546;47.590;19.022;2023-06-14T04:09:06;15.68;;;8.88;;
27003;SDS011;14546;47.590;19.022;2023-06-14T04:11:32;16.85;;;9.02;;
27003;SDS011;14546;47.590;19.022;2023-06-14T04:13:58;13.90;;;8.05;;
27003;SDS011;14546;47.590;19.022;2023-06-14T04:16:24;17.05;;;8.25;;
27003;SDS011;14546;47.590;19.022;2023-06-14T04:18:50;14.43;;;7.45;;
27003;SDS011;14546;47.590;19.022;2023-06-14T04:21:17;17.75;;;7.47;;
27003;SDS011;14546;47.590;19.022;2023-06-14T04:23:43;16.95;;;7.43;;
27003;SDS011;14546;47.590;19.022;2023-06-14T04:26:10;16.25;;;7.85;;
27003;SDS011;14546;47.590;19.022;2023-06-14T04:28:36;13.63;;;7.35;;
27003;SDS011;14546;47.590;19.022;2023-06-14T04:31:06;14.15;;;7.10;;
27003;SDS011;14546;47.590;19.022;2023-06-14T04:33:34;13.05;;;8.02;;
27003;SDS011;14546;47.590;19.022;2023-06-14T04:36:08;19.92;;;8.63;;
27003;SDS011;14546;47.590;19.022;2023-06-14T04:38:34;12.35;;;8.40;;
27003;SDS011;14546;47.590;19.022;2023-06-14T04:41:01;14.35;;;9.13;;
27003;SDS011;14546;47.590;19.022;2023-06-14T04:43:27;17.15;;;9.23;;
27003;SDS011;14546;47.590;19.022;2023-06-14T04:45:53;22.13;;;9.77;;
27003;SDS011;14546;47.590;19.022;2023-06-14T04:48:20;20.25;;;9.98;;
27003;SDS011;14546;47.590;19.022;2023-06-14T04:50:46;18.23;;;9.38;;
27003;SDS011;14546;47.590;19.022;2023-06-14T04:53:12;14.15;;;10.23;;
27003;SDS011;14546;47.590;19.022;2023-06-14T04:55:38;19.63;;;10.00;;
27003;SDS011;14546;47.590;19.022;2023-06-14T04:58:04;17.63;;;9.52;;
27003;SDS011;14546;47.590;19.022;2023-06-14T05:00:31;14.52;;;9.05;;
27003;SDS011;14546;47.590;19.022;2023-06-14T05:02:57;12.85;;;8.65;;
27003;SDS011;14546;47.590;19.022;2023-06-14T05:05:23;17.80;;;9.90;;
27003;SDS011;14546;47.590;19.022;2023-06-14T05:07:49;18.33;;;11.57;;
27003;SDS011;14546;47.590;19.022;2023-06-14T05:10:16;18.60;;;11.55;;
27003;SDS011;14546;47.590;19.022;2023-06-14T05:12:42;19.38;;;12.75;;
27003;SDS011;14546;47.590;19.022;2023-06-14T05:15:08;18.95;;;11.70;;
27003;SDS011;14546;47.590;19.022;2023-06-14T05:17:35;19.25;;;12.52;;
27003;SDS011;14546;47.590;19.022;2023-06-14T05:20:01;24.45;;;11.55;;
27003;SDS011;14546;47.590;19.022;2023-06-14T05:22:28;18.88;;;12.30;;
27003;SDS011;14546;47.590;19.022;2023-06-14T05:24:55;19.33;;;12.23;;
27003;SDS011;14546;47.590;19.022;2023-06-14T05:27:21;18.83;;;12.32;;
27003;SDS011;14546;47.590;19.022;2023-06-14T05:29:47;18.00;;;11.50;;
27003;SDS011;14546;47.590;19.022;2023-06-14T05:32:13;17.75;;;11.27;;
27003;SDS011;14546;47.590;19.022;2023-06-14T05:34:39;15.35;;;10.90;;
27003;SDS011;14546;47.590;19.022;2023-06-14T05:37:05;20.48;;;12.52;;
27003;SDS011;14546;47.590;19.022;2023-06-14T05:39:31;17.63;;;11.27;;
27003;SDS011;14546;47.590;19.022;2023-06-14T05:41:57;17.80;;;11.52;;
27003;SDS011;14546;47.590;19.022;2023-06-14T05:44:23;16.98;;;11.00;;
27003;SDS011;14546;47.590;19.022;2023-06-14T05:46:49;20.23;;;11.73;;
27003;SDS011;14546;47.590;19.022;2023-06-14T05:49:15;20.33;;;11.73;;
27003;SDS011;14546;47.590;19.022;2023-06-14T05:51:41;22.88;;;11.70;;
27003;SDS011;14546;47.590;19.022;2023-06-14T05:54:07;18.10;;;11.13;;
27003;SDS011;14546;47.590;19.022;2023-06-14T05:56:33;19.77;;;11.95;;
27003;SDS011;14546;47.590;19.022;2023-06-14T05:58:59;19.08;;;10.65;;
27003;SDS011;14546;47.590;19.022;2023-06-14T06:01:26;21.70;;;11.65;;
27003;SDS011;14546;47.590;19.022;2023-06-14T06:03:52;23.05;;;12.02;;
27003;SDS011;14546;47.590;19.022;2023-06-14T06:06:18;20.17;;;11.07;;
27003;SDS011;14546;47.590;19.022;2023-06-14T06:08:45;18.95;;;10.93;;
27003;SDS011;14546;47.590;19.022;2023-06-14T06:11:11;17.90;;;11.82;;
27003;SDS011;14546;47.590;19.022;2023-06-14T06:13:37;18.25;;;11.70;;
27003;SDS011;14546;47.590;19.022;2023-06-14T06:16:04;16.50;;;10.63;;
27003;SDS011;14546;47.590;19.022;2023-06-14T06:18:30;18.30;;;10.38;;
27003;SDS011;14546;47.590;19.022;2023-06-14T06:20:56;20.73;;;10.73;;
27003;SDS011;14546;47.590;19.022;2023-06-14T06:23:22;17.75;;;11.43;;
27003;SDS011;14546;47.590;19.022;2023-06-14T06:25:48;14.93;;;10.65;;
27003;SDS011;14546;47.590;19.022;2023-06-14T06:28:14;18.65;;;11.00;;
27003;SDS011;14546;47.590;19.022;2023-06-14T06:30:40;23.70;;;10.60;;
27003;SDS011;14546;47.590;19.022;2023-06-14T06:33:06;20.20;;;10.77;;
27003;SDS011;14546;47.590;19.022;2023-06-14T06:35:32;16.70;;;10.02;;
27003;SDS011;14546;47.590;19.022;2023-06-14T06:37:59;19.05;;;10.98;;
27003;SDS011;14546;47.590;19.022;2023-06-14T06:40:25;16.58;;;11.43;;
27003;SDS011;14546;47.590;19.022;2023-06-14T06:42:51;19.10;;;11.52;;
27003;SDS011;14546;47.590;19.022;2023-06-14T06:45:18;21.25;;;11.07;;
27003;SDS011;14546;47.590;19.022;2023-06-14T06:47:44;18.70;;;11.25;;
27003;SDS011;14546;47.590;19.022;2023-06-14T06:50:10;21.30;;;11.13;;
27003;SDS011;14546;47.590;19.022;2023-06-14T06:52:36;16.70;;;10.48;;
27003;SDS011;14546;47.590;19.022;2023-06-14T06:55:02;19.38;;;9.95;;
27003;SDS011;14546;47.590;19.022;2023-06-14T06:57:28;15.68;;;9.77;;
27003;SDS011;14546;47.590;19.022;2023-06-14T06:59:54;15.85;;;9.52;;
27003;SDS011;14546;47.590;19.022;2023-06-14T07:02:20;16.63;;;9.63;;
27003;SDS011;14546;47.590;19.022;2023-06-14T07:04:46;14.63;;;9.55;;
27003;SDS011;14546;47.590;19.022;2023-06-14T07:07:12;15.27;;;9.70;;
27003;SDS011;14546;47.590;19.022;2023-06-14T07:09:38;15.20;;;9.45;;
27003;SDS011;14546;47.590;19.022;2023-06-14T07:12:06;18.20;;;9.85;;
27003;SDS011;14546;47.590;19.022;2023-06-14T07:14:33;14.77;;;9.38;;
27003;SDS011;14546;47.590;19.022;2023-06-14T07:16:59;14.55;;;9.70;;
27003;SDS011;14546;47.590;19.022;2023-06-14T07:19:25;18.30;;;9.15;;
27003;SDS011;14546;47.590;19.022;2023-06-14T07:21:51;15.07;;;8.57;;
27003;SDS011;14546;47.590;19.022;2023-06-14T07:24:18;13.45;;;9.15;;
27003;SDS011;14546;47.590;19.022;2023-06-14T07:26:46;12.25;;;8.48;;
27003;SDS011;14546;47.590;19.022;2023-06-14T07:29:13;14.05;;;8.52;;
27003;SDS011;14546;47.590;19.022;2023-06-14T07:31:39;17.45;;;9.18;;
27003;SDS011;14546;47.590;19.022;2023-06-14T07:34:05;14.63;;;8.23;;
27003;SDS011;14546;47.590;19.022;2023-06-14T07:36:31;16.00;;;7.85;;
27003;SDS011;14546;47.590;19.022;2023-06-14T07:38:57;13.25;;;7.70;;
27003;SDS011;14546;47.590;19.022;2023-06-14T07:41:23;16.48;;;8.60;;
27003;SDS011;14546;47.590;19.022;2023-06-14T07:43:50;12.98;;;7.72;;
27003;SDS011;14546;47.590;19.022;2023-06-14T07:46:16;17.48;;;7.85;;
27003;SDS011;14546;47.590;19.022;2023-06-14T07:48:42;12.95;;;7.28;;
27003;SDS011;14546;47.590;19.022;2023-06-14T07:51:08;17.67;;;7.20;;
27003;SDS011;14546;47.590;19.022;2023-06-14T07:53:34;11.85;;;7.35;;
27003;SDS011;14546;47.590;19.022;2023-06-14T07:56:00;13.73;;;7.45;;
27003;SDS011;14546;47.590;19.022;2023-06-14T07:58:27;11.32;;;6.35;;
27003;SDS011;14546;47.590;19.022;2023-06-14T08:00:53;12.07;;;6.60;;
27003;SDS011;14546;47.590;19.022;2023-06-14T08:03:19;13.32;;;6.90;;
27003;SDS011;14546;47.590;19.022;2023-06-14T08:05:47;16.88;;;7.93;;
27003;SDS011;14546;47.590;19.022;2023-06-14T08:08:13;9.98;;;6.95;;
27003;SDS011;14546;47.590;19.022;2023-06-14T08:10:39;12.98;;;7.07;;
27003;SDS011;14546;47.590;19.022;2023-06-14T08:13:05;13.93;;;7.05;;
27003;SDS011;14546;47.590;19.022;2023-06-14T08:15:31;10.63;;;6.43;;
27003;SDS011;14546;47.590;19.022;2023-06-14T08:17:58;12.27;;;6.82;;
27003;SDS011;14546;47.590;19.022;2023-06-14T08:20:25;12.02;;;6.50;;
27003;SDS011;14546;47.590;19.022;2023-06-14T08:22:51;12.88;;;6.63;;
27003;SDS011;14546;47.590;19.022;2023-06-14T08:25:21;13.13;;;7.15;;
27003;SDS011;14546;47.590;19.022;2023-06-14T08:27:47;11.73;;;6.70;;
27003;SDS011;14546;47.590;19.022;2023-06-14T08:30:13;10.10;;;6.18;;
27003;SDS011;14546;47.590;19.022;2023-06-14T08:32:39;11.80;;;6.65;;
27003;SDS011;14546;47.590;19.022;2023-06-14T08:35:05;17.75;;;7.38;;
27003;SDS011;14546;47.590;19.022;2023-06-14T08:37:32;7.93;;;6.05;;
27003;SDS011;14546;47.590;19.022;2023-06-14T08:39:58;11.43;;;6.68;;
27003;SDS011;14546;47.590;19.022;2023-06-14T08:42:24;15.05;;;6.88;;
27003;SDS011;14546;47.590;19.022;2023-06-14T08:44:50;9.98;;;6.95;;
27003;SDS011;14546;47.590;19.022;2023-06-14T08:47:16;12.18;;;6.53;;
27003;SDS011;14546;47.590;19.022;2023-06-14T08:49:45;11.18;;;6.93;;
27003;SDS011;14546;47.590;19.022;2023-06-14T08:52:13;15.85;;;7.13;;
27003;SDS011;14546;47.590;19.022;2023-06-14T08:54:39;11.27;;;6.70;;
27003;SDS011;14546;47.590;19.022;2023-06-14T08:57:10;9.65;;;5.80;;
27003;SDS011;14546;47.590;19.022;2023-06-14T08:59:42;12.13;;;6.15;;
27003;SDS011;14546;47.590;19.022;2023-06-14T09:02:11;14.02;;;6.75;;
27003;SDS011;14546;47.590;19.022;2023-06-14T09:04:39;12.88;;;6.70;;
27003;SDS011;14546;47.590;19.022;2023-06-14T09:07:06;15.18;;;7.15;;
27003;SDS011;14546;47.590;19.022;2023-06-14T09:09:32;14.50;;;6.57;;
27003;SDS011;14546;47.590;19.022;2023-06-14T09:11:59;10.40;;;6.32;;
27003;SDS011;14546;47.590;19.022;2023-06-14T09:14:25;12.93;;;6.18;;
27003;SDS011;14546;47.590;19.022;2023-06-14T09:16:54;13.43;;;6.35;;
27003;SDS011;14546;47.590;19.022;2023-06-14T09:19:21;14.23;;;6.40;;
27003;SDS011;14546;47.590;19.022;2023-06-14T09:21:47;12.40;;;7.10;;
27003;SDS011;14546;47.590;19.022;2023-06-14T09:24:14;17.05;;;6.53;;
27003;SDS011;14546;47.590;19.022;2023-06-14T09:26:40;13.35;;;6.38;;
27003;SDS011;14546;47.590;19.022;2023-06-14T09:29:06;15.60;;;6.75;;
27003;SDS011;14546;47.590;19.022;2023-06-14T09:31:32;12.23;;;5.85;;
27003;SDS011;14546;47.590;19.022;2023-06-14T09:33:59;10.45;;;5.32;;
27003;SDS011;14546;47.590;19.022;2023-06-14T09:36:27;10.57;;;5.90;;
27003;SDS011;14546;47.590;19.022;2023-06-14T09:38:57;8.75;;;5.65;;
27003;SDS011;14546;47.590;19.022;2023-06-14T09:41:34;13.82;;;5.20;;
27003;SDS011;14546;47.590;19.022;2023-06-14T09:44:00;6.55;;;5.43;;
27003;SDS011;14546;47.590;19.022;2023-06-14T09:46:27;9.38;;;5.70;;
27003;SDS011;14546;47.590;19.022;2023-06-14T09:48:54;11.10;;;5.50;;
27003;SDS011;14546;47.590;19.022;2023-06-14T09:51:21;9.60;;;5.82;;
27003;SDS011;14546;47.590;19.022;2023-06-14T09:53:48;8.73;;;5.15;;
27003;SDS011;14546;47.590;19.022;2023-06-14T09:56:57;7.45;;;4.53;;
27003;SDS011;14546;47.590;19.022;2023-06-14T09:59:04;6.65;;;4.80;;
27003;SDS011;14546;47.590;19.022;2023-06-14T10:01:32;12.93;;;4.68;;
27003;SDS011;14546;47.590;19.022;2023-06-14T10:06:25;8.60;;;4.97;;
27003;SDS011;14546;47.590;19.022;2023-06-14T10:08:52;5.85;;;4.22;;
27003;SDS011;14546;47.590;19.022;2023-06-14T10:11:20;11.25;;;4.00;;
27003;SDS011;14546;47.590;19.022;2023-06-14T10:13:46;7.30;;;3.92;;
27003;SDS011;14546;47.590;19.022;2023-06-14T10:16:17;9.05;;;4.05;;
27003;SDS011;14546;47.590;19.022;2023-06-14T10:21:28;5.43;;;3.80;;
27003;SDS011;14546;47.590;19.022;2023-06-14T10:23:59;9.55;;;3.78;;
27003;SDS011;14546;47.590;19.022;2023-06-14T10:26:27;6.93;;;3.28;;
27003;SDS011;14546;47.590;19.022;2023-06-14T10:28:56;9.65;;;3.10;;
27003;SDS011;14546;47.590;19.022;2023-06-14T10:31:23;6.15;;;2.95;;
27003;SDS011;14546;47.590;19.022;2023-06-14T10:34:05;4.93;;;3.47;;
27003;SDS011;14546;47.590;19.022;2023-06-14T10:36:31;3.88;;;2.70;;
27003;SDS011;14546;47.590;19.022;2023-06-14T10:39:04;10.70;;;3.10;;
27003;SDS011;14546;47.590;19.022;2023-06-14T10:41:31;6.65;;;3.25;;
27003;SDS011;14546;47.590;19.022;2023-06-14T10:46:48;6.75;;;3.30;;
27003;SDS011;14546;47.590;19.022;2023-06-14T10:49:18;8.50;;;3.30;;
27003;SDS011;14546;47.590;19.022;2023-06-14T10:51:45;8.93;;;3.80;;
27003;SDS011;14546;47.590;19.022;2023-06-14T10:54:12;7.07;;;3.70;;
27003;SDS011;14546;47.590;19.022;2023-06-14T10:56:48;6.07;;;3.80;;
27003;SDS011;14546;47.590;19.022;2023-06-14T11:04:15;7.97;;;3.58;;
27003;SDS011;14546;47.590;19.022;2023-06-14T11:06:49;12.27;;;4.10;;
27003;SDS011;14546;47.590;19.022;2023-06-14T11:11:57;7.25;;;3.13;;
27003;SDS011;14546;47.590;19.022;2023-06-14T11:14:23;8.23;;;3.83;;
27003;SDS011;14546;47.590;19.022;2023-06-14T11:16:49;9.07;;;3.80;;
27003;SDS011;14546;47.590;19.022;2023-06-14T11:19:16;9.65;;;3.30;;
27003;SDS011;14546;47.590;19.022;2023-06-14T11:21:42;8.82;;;4.15;;
27003;SDS011;14546;47.590;19.022;2023-06-14T11:24:11;9.52;;;3.90;;
27003;SDS011;14546;47.590;19.022;2023-06-14T11:26:38;8.93;;;3.75;;
27003;SDS011;14546;47.590;19.022;2023-06-14T11:29:04;20.48;;;4.55;;
27003;SDS011;14546;47.590;19.022;2023-06-14T11:31:30;12.88;;;3.72;;
27003;SDS011;14546;47.590;19.022;2023-06-14T11:33:57;5.68;;;3.53;;
27003;SDS011;14546;47.590;19.022;2023-06-14T11:36:26;10.02;;;4.13;;
27003;SDS011;14546;47.590;19.022;2023-06-14T11:38:58;6.30;;;3.83;;
27003;SDS011;14546;47.590;19.022;2023-06-14T11:41:24;9.82;;;3.20;;
27003;SDS011;14546;47.590;19.022;2023-06-14T11:43:53;6.15;;;3.10;;
27003;SDS011;14546;47.590;19.022;2023-06-14T11:46:19;9.40;;;3.10;;
27003;SDS011;14546;47.590;19.022;2023-06-14T11:48:49;4.13;;;2.40;;
27003;SDS011;14546;47.590;19.022;2023-06-14T11:51:15;6.45;;;2.58;;
27003;SDS011;14546;47.590;19.022;2023-06-14T11:53:42;4.10;;;2.83;;
27003;SDS011;14546;47.590;19.022;2023-06-14T11:56:08;4.43;;;3.13;;
27003;SDS011;14546;47.590;19.022;2023-06-14T11:58:34;7.47;;;3.10;;
27003;SDS011;14546;47.590;19.022;2023-06-14T12:01:02;6.25;;;2.78;;
27003;SDS011;14546;47.590;19.022;2023-06-14T12:03:28;11.45;;;3.28;;
27003;SDS011;14546;47.590;19.022;2023-06-14T12:06:07;8.18;;;3.00;;
27003;SDS011;14546;47.590;19.022;2023-06-14T12:08:34;7.88;;;3.17;;
27003;SDS011;14546;47.590;19.022;2023-06-14T12:11:04;4.13;;;2.40;;
27003;SDS011;14546;47.590;19.022;2023-06-14T12:13:31;7.78;;;3.38;;
27003;SDS011;14546;47.590;19.022;2023-06-14T12:15:57;6.50;;;2.83;;
27003;SDS011;14546;47.590;19.022;2023-06-14T12:18:33;7.45;;;2.60;;
27003;SDS011;14546;47.590;19.022;2023-06-14T12:21:08;3.67;;;2.72;;
27003;SDS011;14546;47.590;19.022;2023-06-14T12:26:12;3.03;;;2.47;;
27003;SDS011;14546;47.590;19.022;2023-06-14T12:28:39;5.95;;;2.70;;
27003;SDS011;14546;47.590;19.022;2023-06-14T12:31:07;8.82;;;2.70;;
27003;SDS011;14546;47.590;19.022;2023-06-14T12:33:33;4.95;;;2.63;;
27003;SDS011;14546;47.590;19.022;2023-06-14T12:35:59;11.00;;;2.90;;
27003;SDS011;14546;47.590;19.022;2023-06-14T12:38:25;6.45;;;2.92;;
27003;SDS011;14546;47.590;19.022;2023-06-14T12:40:51;8.02;;;2.88;;
27003;SDS011;14546;47.590;19.022;2023-06-14T12:43:19;5.82;;;2.50;;
27003;SDS011;14546;47.590;19.022;2023-06-14T12:45:45;6.30;;;2.80;;
27003;SDS011;14546;47.590;19.022;2023-06-14T12:48:11;6.40;;;2.58;;
27003;SDS011;14546;47.590;19.022;2023-06-14T12:50:37;5.07;;;2.75;;
27003;SDS011;14546;47.590;19.022;2023-06-14T12:53:03;3.92;;;2.63;;
27003;SDS011;14546;47.590;19.022;2023-06-14T12:55:29;4.22;;;2.72;;
27003;SDS011;14546;47.590;19.022;2023-06-14T12:57:55;9.57;;;2.88;;
27003;SDS011;14546;47.590;19.022;2023-06-14T13:00:21;8.57;;;2.92;;
27003;SDS011;14546;47.590;19.022;2023-06-14T13:02:48;5.57;;;2.35;;
27003;SDS011;14546;47.590;19.022;2023-06-14T13:05:14;4.88;;;2.70;;
27003;SDS011;14546;47.590;19.022;2023-06-14T13:07:40;5.85;;;2.58;;
27003;SDS011;14546;47.590;19.022;2023-06-14T13:10:06;4.30;;;2.53;;
27003;SDS011;14546;47.590;19.022;2023-06-14T13:12:32;4.88;;;2.70;;
27003;SDS011;14546;47.590;19.022;2023-06-14T13:14:58;7.03;;;2.88;;
27003;SDS011;14546;47.590;19.022;2023-06-14T13:17:24;11.35;;;3.97;;
27003;SDS011;14546;47.590;19.022;2023-06-14T13:19:50;8.65;;;2.85;;
27003;SDS011;14546;47.590;19.022;2023-06-14T13:22:16;9.05;;;3.35;;
27003;SDS011;14546;47.590;19.022;2023-06-14T13:24:42;9.57;;;3.20;;
27003;SDS011;14546;47.590;19.022;2023-06-14T13:27:08;5.25;;;2.60;;
27003;SDS011;14546;47.590;19.022;2023-06-14T13:29:35;7.63;;;3.30;;
27003;SDS011;14546;47.590;19.022;2023-06-14T13:32:01;14.57;;;3.22;;
27003;SDS011;14546;47.590;19.022;2023-06-14T13:34:28;6.88;;;3.08;;
27003;SDS011;14546;47.590;19.022;2023-06-14T13:36:54;8.55;;;2.90;;
27003;SDS011;14546;47.590;19.022;2023-06-14T13:39:20;4.55;;;2.38;;
27003;SDS011;14546;47.590;19.022;2023-06-14T13:41:46;6.43;;;3.50;;
27003;SDS011;14546;47.590;19.022;2023-06-14T13:44:12;6.25;;;2.67;;
27003;SDS011;14546;47.590;19.022;2023-06-14T13:46:39;6.03;;;3.22;;
27003;SDS011;14546;47.590;19.022;2023-06-14T13:49:07;6.82;;;3.13;;
27003;SDS011;14546;47.590;19.022;2023-06-14T13:51:33;9.45;;;3.10;;
27003;SDS011;14546;47.590;19.022;2023-06-14T13:54:00;4.18;;;2.50;;
27003;SDS011;14546;47.590;19.022;2023-06-14T13:56:26;6.65;;;2.88;;
27003;SDS011;14546;47.590;19.022;2023-06-14T13:58:52;11.15;;;3.20;;
27003;SDS011;14546;47.590;19.022;2023-06-14T14:01:18;5.50;;;2.70;;
27003;SDS011;14546;47.590;19.022;2023-06-14T14:03:48;7.68;;;2.78;;
27003;SDS011;14546;47.590;19.022;2023-06-14T14:06:14;5.78;;;3.20;;
27003;SDS011;14546;47.590;19.022;2023-06-14T14:08:41;4.40;;;2.65;;
27003;SDS011;14546;47.590;19.022;2023-06-14T14:11:07;6.25;;;2.60;;
27003;SDS011;14546;47.590;19.022;2023-06-14T14:13:34;4.25;;;2.50;;
27003;SDS011;14546;47.590;19.022;2023-06-14T14:16:01;4.60;;;2.78;;
27003;SDS011;14546;47.590;19.022;2023-06-14T14:18:27;5.82;;;2.83;;
27003;SDS011;14546;47.590;19.022;2023-06-14T14:20:53;10.93;;;2.97;;
27003;SDS011;14546;47.590;19.022;2023-06-14T14:23:20;5.78;;;2.53;;
27003;SDS011;14546;47.590;19.022;2023-06-14T14:25:46;6.88;;;3.15;;
27003;SDS011;14546;47.590;19.022;2023-06-14T14:28:12;5.03;;;2.80;;
27003;SDS011;14546;47.590;19.022;2023-06-14T14:30:40;6.45;;;3.03;;
27003;SDS011;14546;47.590;19.022;2023-06-14T14:33:06;8.80;;;3.13;;
27003;SDS011;14546;47.590;19.022;2023-06-14T14:35:33;12.27;;;3.20;;
27003;SDS011;14546;47.590;19.022;2023-06-14T14:37:59;10.05;;;3.10;;
27003;SDS011;14546;47.590;19.022;2023-06-14T14:40:25;3.22;;;2.00;;
27003;SDS011;14546;47.590;19.022;2023-06-14T14:42:51;4.25;;;2.40;;
27003;SDS011;14546;47.590;19.022;2023-06-14T14:45:17;6.82;;;2.75;;
27003;SDS011;14546;47.590;19.022;2023-06-14T14:47:43;5.68;;;2.70;;